Burt Lake, MI

12:38 PM EDT on July 04, 2015 (GMT -0400)
Northwest Burt Lake | | Change Station
CLOSE
Current Station
Personal Weather Station
Location: Brutus, MI
Elevation: 626 ft
Nearby Weather Stations

Elev 626 ft 45.51 °N, 84.70 °W | Updated 2 seconds ago

Clear
Clear
71.1 °F
Feels Like 73 °F
N
3.0
Wind Variable Wind from SE
Gusts 5.0 mph

Today
High -- | Low -- °F
--% Chance of Precip.
Yesterday
High -- | Low -- °F
Precip. -- in
5:55 AM 9:30 PM
Waning Gibbous, 91% visible
Pressure 29.96 in
Visibility 10.0 miles
Clouds Clear
Heat Index 73 °F
Dew Point 62 °F
Humidity 74%
Rainfall 0.00 in
Snow Depth Not available.
UV 9 out of 12
Pollen 4.40 out of 12
Air Quality Not available.
Flu Activity Not available.
METAR KPLN 041554Z AUTO VRB06KT 10SM CLR 24/14 A2996 RMK AO2 SLP144 T02390144

More Conditions Fewer Conditions

Pressure 29.96 in
Visibility 10.0 miles
Clouds Clear
Heat Index 73 °F
Dew Point 62 °F
Humidity 74%
Rainfall 0.00 in
Snow Depth Not available.
UV 9 out of 12
Pollen 4.40 out of 12
Air Quality Not available.
Flu Activity Not available.
METAR KPLN 041554Z AUTO VRB06KT 10SM CLR 24/14 A2996 RMK AO2 SLP144 T02390144

More Conditions Fewer Conditions

Nowcast | as of 12:00 PM EDT on July 4, 2015

At 1 PM...mostly clear. Temperature 71. North winds 7 mph. At 3 PM...mostly clear. Temperature 72. North winds 8 mph. At 5 PM...mostly clear. Temperature 74. Northwest winds 7 mph. At 7 PM...mostly clear. Temperature 71. Northwest winds 7 mph.

×

10-Day Weather Forecast

×

Almanac

Astronomy

Jul. 04, 2015 Rise Set
Actual Time
Civil Twilight
Nautical Twilight
Astronomical Twilight
Moon
Length of Visible Light
Length of Day
Tomorrow will be .
, % of the Moon is Illuminated

Today's Extremes

State Highs State Lows

Community

WunderPhotos

Upload Photos

1,834,998 photos uploaded!

WunderBlogs® & News

Nearby

Air Quality

  Air Quality AQ Index Pollutant
Not available.

Snow Depth

Station Depth Elevation

Earthquake Activity

City Distance Mag. Time & Date
Minimum magnitude displayed is 2.5.

Coastal Water Temperatures

Place Temperature

Stations

Nearby Weather Stations

Station Location Temp. Windchill Dew Point Humidity Wind Precip. Elev Updated Type